Terminal Aerodrome Forecast
Issued by NWS

Home | Current Version | Previous Version | Text Only | Print | Product List | Glossary On
Versions: 1 2 3 4 5 6 7 8 9 10 11 12 13
000
FTUS46 KPDT 281700
TAFPSC
TAF
KPSC 281720Z 2818/2918 26007KT P6SM VCSH SCT050 OVC100
     FM290000 34004KT P6SM VCSH SCT025 OVC050
     FM290900 34005KT 5SM -SHSN BR SCT015 OVC025
     FM291600 33015G25KT P6SM SCT020 BKN040=

USA.gov is the U.S. government's official web portal to all federal, state and local government web resources and services.